Time;durP1;ratioP1;P1;durP2;ratioP2;P2;SDS_P1;SDS_P2;PMS_P1;PMS_P2;Temp;Humidity;BMP_temperature;BMP_pressure;BME280_temperature;BME280_humidity;BME280_pressure;Samples;Min_cycle;Max_cycle;Signal;HPM_P1;HPM_P2
2021/10/06 00:00:11;;;;;;;7.72;6.28;;;;;;;;;;2047886;29;20177;-52
2021/10/06 00:01:15;;;;;;;10.88;7.15;;;;;;;;;;2056148;28;20260;-53
2021/10/06 00:02:16;;;;;;;9.18;6.32;;;;;;;;;;2055490;28;20174;-54
2021/10/06 00:03:16;;;;;;;6.97;6.18;;;;;;;;;;2052718;28;20182;-54
2021/10/06 00:04:16;;;;;;;9.70;6.82;;;;;;;;;;2056289;28;20190;-54
2021/10/06 00:05:16;;;;;;;8.00;6.05;;;;;;;;;;2055644;28;20178;-54
2021/10/06 00:06:17;;;;;;;8.25;5.82;;;;;;;;;;2057000;28;20710;-52
2021/10/06 00:07:17;;;;;;;6.97;5.35;;;;;;;;;;2056163;28;20202;-52
2021/10/06 00:08:17;;;;;;;11.35;6.80;;;;;;;;;;2056027;28;20261;-53
2021/10/06 00:09:18;;;;;;;6.70;6.00;;;;;;;;;;2053536;28;20293;-55
2021/10/06 00:10:19;;;;;;;7.35;5.97;;;;;;;;;;2049497;28;20655;-52
2021/10/06 00:11:19;;;;;;;8.30;5.55;;;;;;;;;;2056018;28;20556;-53
2021/10/06 00:12:19;;;;;;;7.57;5.45;;;;;;;;;;2055714;28;20228;-56
2021/10/06 00:13:20;;;;;;;7.78;6.05;;;;;;;;;;2056832;28;20590;-52
2021/10/06 00:14:20;;;;;;;8.27;5.63;;;;;;;;;;2055569;28;20710;-52
2021/10/06 00:15:20;;;;;;;8.73;5.75;;;;;;;;;;2048451;28;20175;-52
2021/10/06 00:16:21;;;;;;;9.73;5.85;;;;;;;;;;2055024;28;20212;-52
2021/10/06 00:17:21;;;;;;;10.38;6.53;;;;;;;;;;2056563;28;20172;-53
2021/10/06 00:18:23;;;;;;;7.00;4.97;;;;;;;;;;2057006;28;20651;-52
2021/10/06 00:19:24;;;;;;;7.03;6.10;;;;;;;;;;2055972;28;20214;-52
2021/10/06 00:20:24;;;;;;;7.88;6.82;;;;;;;;;;2055202;28;20190;-54
2021/10/06 00:21:24;;;;;;;8.65;6.38;;;;;;;;;;2048007;29;20202;-51
2021/10/06 00:22:25;;;;;;;6.97;5.88;;;;;;;;;;2055896;28;20178;-52
2021/10/06 00:23:27;;;;;;;12.02;6.30;;;;;;;;;;2048195;28;20179;-55
2021/10/06 00:24:27;;;;;;;8.93;5.60;;;;;;;;;;2048549;28;20229;-52
2021/10/06 00:25:27;;;;;;;8.35;5.68;;;;;;;;;;2049023;29;20171;-51
2021/10/06 00:26:27;;;;;;;10.70;6.20;;;;;;;;;;2048968;28;20592;-52
2021/10/06 00:27:28;;;;;;;7.78;5.80;;;;;;;;;;2048896;28;20167;-53
2021/10/06 00:28:28;;;;;;;7.25;5.50;;;;;;;;;;2048788;28;20187;-53
2021/10/06 00:29:29;;;;;;;7.60;5.32;;;;;;;;;;2053257;28;20198;-56
2021/10/06 00:30:29;;;;;;;8.45;5.45;;;;;;;;;;2055884;28;20895;-51
2021/10/06 00:31:29;;;;;;;7.03;5.30;;;;;;;;;;2055726;28;20186;-53
2021/10/06 00:32:30;;;;;;;7.93;5.38;;;;;;;;;;2055099;28;20170;-52
2021/10/06 00:33:30;;;;;;;7.70;5.40;;;;;;;;;;2047716;29;20187;-52
2021/10/06 00:34:30;;;;;;;6.50;5.63;;;;;;;;;;2047380;29;20194;-53
2021/10/06 00:35:30;;;;;;;10.77;5.88;;;;;;;;;;2047902;28;20175;-56
2021/10/06 00:36:31;;;;;;;7.40;5.78;;;;;;;;;;2047444;29;20227;-52
2021/10/06 00:37:31;;;;;;;7.22;5.53;;;;;;;;;;2048531;28;20175;-52
2021/10/06 00:38:31;;;;;;;7.65;5.38;;;;;;;;;;2054596;28;20174;-56
2021/10/06 00:39:31;;;;;;;7.07;5.45;;;;;;;;;;2057156;28;20556;-53
2021/10/06 00:40:32;;;;;;;8.57;6.10;;;;;;;;;;2057797;28;20174;-51
2021/10/06 00:41:32;;;;;;;6.78;5.30;;;;;;;;;;2057315;28;20170;-53
2021/10/06 00:42:32;;;;;;;7.57;5.40;;;;;;;;;;2057787;28;20337;-55
2021/10/06 00:43:32;;;;;;;8.05;5.70;;;;;;;;;;2058250;28;20245;-50
2021/10/06 00:44:36;;;;;;;7.57;5.70;;;;;;;;;;2058486;28;20174;-54
2021/10/06 00:45:37;;;;;;;8.15;5.63;;;;;;;;;;2058440;28;20249;-53
2021/10/06 00:46:37;;;;;;;8.27;4.97;;;;;;;;;;2058593;28;20166;-53
2021/10/06 00:47:37;;;;;;;6.28;5.50;;;;;;;;;;2057574;28;20642;-53
2021/10/06 00:48:38;;;;;;;7.25;5.18;;;;;;;;;;2056855;28;20194;-53
2021/10/06 00:49:38;;;;;;;7.25;4.63;;;;;;;;;;2043818;29;20199;-52
2021/10/06 00:50:39;;;;;;;6.43;4.97;;;;;;;;;;2048008;29;20187;-53
2021/10/06 00:51:39;;;;;;;6.32;4.38;;;;;;;;;;2057517;28;20181;-52
2021/10/06 00:52:39;;;;;;;6.57;4.65;;;;;;;;;;2058388;28;20278;-54
2021/10/06 00:53:40;;;;;;;5.47;4.20;;;;;;;;;;2058144;28;20189;-52
2021/10/06 00:54:40;;;;;;;8.68;4.45;;;;;;;;;;2057868;28;20170;-53
2021/10/06 00:55:41;;;;;;;6.57;4.55;;;;;;;;;;2056100;28;20653;-55
2021/10/06 00:56:41;;;;;;;10.30;4.45;;;;;;;;;;2052780;28;20283;-51
2021/10/06 00:57:42;;;;;;;4.82;4.43;;;;;;;;;;2064152;28;20676;-54
2021/10/06 00:58:42;;;;;;;7.97;4.78;;;;;;;;;;2062894;28;20192;-53
2021/10/06 00:59:43;;;;;;;5.07;4.57;;;;;;;;;;2056357;28;20178;-50
2021/10/06 01:00:43;;;;;;;5.00;4.20;;;;;;;;;;2055289;28;20321;-51
2021/10/06 01:01:43;;;;;;;7.32;4.78;;;;;;;;;;2055027;28;20194;-52
2021/10/06 01:02:43;;;;;;;8.27;4.70;;;;;;;;;;2058238;28;20224;-54
2021/10/06 01:03:43;;;;;;;5.03;4.47;;;;;;;;;;2058106;28;20245;-54
2021/10/06 01:04:44;;;;;;;6.78;4.70;;;;;;;;;;2056971;28;20212;-53
2021/10/06 01:05:44;;;;;;;4.90;4.40;;;;;;;;;;2049897;28;20171;-52
2021/10/06 01:06:44;;;;;;;7.97;5.00;;;;;;;;;;2049711;28;20185;-55
2021/10/06 01:07:45;;;;;;;7.55;4.90;;;;;;;;;;2054487;28;20178;-51
2021/10/06 01:08:45;;;;;;;4.93;4.53;;;;;;;;;;2056630;28;20170;-53
2021/10/06 01:09:45;;;;;;;5.60;4.50;;;;;;;;;;2056990;28;20288;-53
2021/10/06 01:10:46;;;;;;;5.85;4.50;;;;;;;;;;2058149;28;20221;-52
2021/10/06 01:11:46;;;;;;;7.15;4.53;;;;;;;;;;2057232;28;21059;-52
2021/10/06 01:12:47;;;;;;;5.20;4.70;;;;;;;;;;2061629;28;20198;-55
2021/10/06 01:13:47;;;;;;;8.30;4.80;;;;;;;;;;2061369;28;20206;-54
2021/10/06 01:14:48;;;;;;;7.15;5.18;;;;;;;;;;2057941;28;20221;-54
2021/10/06 01:15:50;;;;;;;5.13;4.72;;;;;;;;;;2060004;28;20213;-55
2021/10/06 01:16:51;;;;;;;7.82;5.40;;;;;;;;;;2054641;28;20175;-53
2021/10/06 01:17:51;;;;;;;5.65;5.15;;;;;;;;;;2060367;28;20193;-54
2021/10/06 01:18:52;;;;;;;7.80;5.43;;;;;;;;;;2058759;28;20643;-54
2021/10/06 01:19:52;;;;;;;9.27;5.70;;;;;;;;;;2057827;28;20186;-54
2021/10/06 01:20:52;;;;;;;7.30;5.63;;;;;;;;;;2057373;28;20200;-52
2021/10/06 01:21:53;;;;;;;7.50;6.00;;;;;;;;;;2058543;28;20248;-54
2021/10/06 01:22:53;;;;;;;8.63;5.82;;;;;;;;;;2055665;28;20197;-53
2021/10/06 01:23:56;;;;;;;6.65;5.40;;;;;;;;;;2058230;28;20174;-56
2021/10/06 01:24:59;;;;;;;8.77;5.88;;;;;;;;;;2058037;28;20179;-53
2021/10/06 01:26:00;;;;;;;7.35;4.95;;;;;;;;;;2057539;28;20170;-55
2021/10/06 01:27:00;;;;;;;7.20;5.13;;;;;;;;;;2057077;28;20282;-54
2021/10/06 01:28:01;;;;;;;9.02;6.50;;;;;;;;;;2057539;28;20178;-52
2021/10/06 01:29:01;;;;;;;8.50;5.72;;;;;;;;;;2059378;28;20209;-52
2021/10/06 01:30:02;;;;;;;7.68;5.60;;;;;;;;;;2057815;28;20166;-52
2021/10/06 01:31:03;;;;;;;7.70;6.57;;;;;;;;;;2055142;28;20171;-52
2021/10/06 01:32:10;;;;;;;8.27;6.38;;;;;;;;;;2053033;28;20258;-54
2021/10/06 01:33:10;;;;;;;6.80;6.18;;;;;;;;;;2054315;28;20693;-53
2021/10/06 01:34:11;;;;;;;7.30;6.53;;;;;;;;;;2053259;28;20185;-52
2021/10/06 01:35:13;;;;;;;8.85;6.45;;;;;;;;;;2056813;28;20197;-52
2021/10/06 01:36:13;;;;;;;10.82;7.10;;;;;;;;;;2053188;28;20167;-53
2021/10/06 01:37:33;;;;;;;7.53;6.70;;;;;;;;;;2057072;28;20633;-52
2021/10/06 01:38:36;;;;;;;7.22;6.47;;;;;;;;;;2057178;28;20574;-51
2021/10/06 01:39:37;;;;;;;7.35;6.70;;;;;;;;;;2057713;28;20194;-53
2021/10/06 01:40:37;;;;;;;6.97;5.97;;;;;;;;;;2049103;29;20190;-53
2021/10/06 01:41:37;;;;;;;6.32;5.78;;;;;;;;;;2049283;29;20227;-52
2021/10/06 01:42:38;;;;;;;7.55;6.00;;;;;;;;;;2056930;28;20182;-56
2021/10/06 01:43:38;;;;;;;7.78;6.53;;;;;;;;;;2057619;28;20167;-55
2021/10/06 01:44:39;;;;;;;9.52;6.45;;;;;;;;;;2057810;28;20197;-55
2021/10/06 01:45:40;;;;;;;8.45;6.18;;;;;;;;;;2058191;28;20182;-55
2021/10/06 01:46:41;;;;;;;7.00;5.60;;;;;;;;;;2058272;28;20178;-55
2021/10/06 01:47:41;;;;;;;10.23;6.32;;;;;;;;;;2058253;28;20671;-54
2021/10/06 01:48:41;;;;;;;8.52;6.45;;;;;;;;;;2057251;28;20225;-57
2021/10/06 01:49:42;;;;;;;7.70;6.63;;;;;;;;;;2057550;28;20198;-56
2021/10/06 01:50:43;;;;;;;8.98;6.55;;;;;;;;;;2056690;28;20174;-55
2021/10/06 01:51:44;;;;;;;8.05;6.10;;;;;;;;;;2057785;28;20162;-55
2021/10/06 01:52:44;;;;;;;9.18;6.13;;;;;;;;;;2058024;28;20265;-55
2021/10/06 01:53:44;;;;;;;8.23;6.57;;;;;;;;;;2058029;28;20167;-52
2021/10/06 01:54:45;;;;;;;10.82;6.28;;;;;;;;;;2058403;28;20639;-55
2021/10/06 01:55:46;;;;;;;7.40;6.60;;;;;;;;;;2054171;28;20182;-52
2021/10/06 01:56:46;;;;;;;10.65;6.65;;;;;;;;;;2049676;28;20397;-56
2021/10/06 01:57:46;;;;;;;7.55;6.85;;;;;;;;;;2056309;28;20174;-52
2021/10/06 01:58:47;;;;;;;9.15;6.25;;;;;;;;;;2057161;28;20183;-54
2021/10/06 01:59:48;;;;;;;7.50;6.00;;;;;;;;;;2057283;28;20178;-53
2021/10/06 02:00:48;;;;;;;7.80;6.75;;;;;;;;;;2057446;28;20535;-55
2021/10/06 02:01:49;;;;;;;6.57;5.93;;;;;;;;;;2057766;28;20186;-55
2021/10/06 02:02:49;;;;;;;8.10;6.63;;;;;;;;;;2057886;28;20181;-55
2021/10/06 02:03:49;;;;;;;7.38;6.07;;;;;;;;;;2056509;28;20229;-52
2021/10/06 02:04:49;;;;;;;8.65;6.95;;;;;;;;;;2056636;28;20281;-54
2021/10/06 02:05:50;;;;;;;9.45;7.07;;;;;;;;;;2053172;28;20179;-54
2021/10/06 02:06:50;;;;;;;7.88;7.15;;;;;;;;;;2051829;28;20178;-54
2021/10/06 02:07:51;;;;;;;8.02;6.53;;;;;;;;;;2057247;28;20178;-52
2021/10/06 02:08:51;;;;;;;7.35;6.55;;;;;;;;;;2056868;28;20260;-55
2021/10/06 02:09:51;;;;;;;9.82;6.45;;;;;;;;;;2048838;28;20202;-52
2021/10/06 02:10:51;;;;;;;7.78;7.07;;;;;;;;;;2045791;29;20218;-52
2021/10/06 02:11:52;;;;;;;9.10;7.10;;;;;;;;;;2048267;29;20215;-52
2021/10/06 02:12:52;;;;;;;8.25;6.85;;;;;;;;;;2056308;28;20257;-52
2021/10/06 02:13:52;;;;;;;7.60;6.72;;;;;;;;;;2056042;28;20185;-54
2021/10/06 02:14:53;;;;;;;10.15;7.03;;;;;;;;;;2056522;28;20178;-52
2021/10/06 02:15:53;;;;;;;8.43;6.97;;;;;;;;;;2051750;28;20597;-53
2021/10/06 02:16:53;;;;;;;7.80;6.60;;;;;;;;;;2056287;28;20186;-56
2021/10/06 02:17:53;;;;;;;10.13;7.75;;;;;;;;;;2043684;29;20968;-56
2021/10/06 02:18:54;;;;;;;8.77;6.80;;;;;;;;;;2048999;28;20191;-56
2021/10/06 02:19:54;;;;;;;9.55;6.70;;;;;;;;;;2052068;28;20579;-52
2021/10/06 02:20:54;;;;;;;7.45;6.72;;;;;;;;;;2056631;28;20174;-53
2021/10/06 02:21:55;;;;;;;9.00;6.75;;;;;;;;;;2056012;28;20190;-54
2021/10/06 02:22:55;;;;;;;8.45;6.68;;;;;;;;;;2053149;28;20183;-55
2021/10/06 02:23:56;;;;;;;8.27;7.18;;;;;;;;;;2052486;28;20245;-52
2021/10/06 02:24:57;;;;;;;8.38;7.43;;;;;;;;;;2057615;28;20844;-51
2021/10/06 02:25:57;;;;;;;10.93;7.45;;;;;;;;;;2050958;28;20219;-55
2021/10/06 02:26:57;;;;;;;11.00;7.22;;;;;;;;;;2052211;28;20273;-54
2021/10/06 02:27:57;;;;;;;7.90;7.13;;;;;;;;;;2053062;28;20179;-52
2021/10/06 02:28:58;;;;;;;7.60;6.80;;;;;;;;;;2057566;28;20257;-52
2021/10/06 02:29:58;;;;;;;8.90;7.03;;;;;;;;;;2051625;28;20182;-53
2021/10/06 02:30:58;;;;;;;7.68;6.85;;;;;;;;;;2050367;28;20179;-53
2021/10/06 02:31:58;;;;;;;7.78;7.07;;;;;;;;;;2056533;28;20179;-53
2021/10/06 02:32:58;;;;;;;7.93;7.18;;;;;;;;;;2056896;28;20189;-52
2021/10/06 02:33:59;;;;;;;7.72;6.95;;;;;;;;;;2050967;28;20656;-52
2021/10/06 02:34:59;;;;;;;10.10;7.10;;;;;;;;;;2051337;28;20211;-52
2021/10/06 02:35:59;;;;;;;10.23;7.25;;;;;;;;;;2052150;28;20179;-54
2021/10/06 02:37:00;;;;;;;8.32;6.97;;;;;;;;;;2056814;28;20259;-55
2021/10/06 02:38:00;;;;;;;9.50;6.75;;;;;;;;;;2049154;28;20182;-53
2021/10/06 02:39:01;;;;;;;10.65;7.60;;;;;;;;;;2049615;28;20195;-53
2021/10/06 02:40:01;;;;;;;7.60;6.90;;;;;;;;;;2050276;28;20234;-51
2021/10/06 02:41:01;;;;;;;8.77;6.72;;;;;;;;;;2062657;28;20201;-53
2021/10/06 02:42:01;;;;;;;8.80;7.22;;;;;;;;;;2056470;28;20267;-54
2021/10/06 02:43:02;;;;;;;9.98;7.13;;;;;;;;;;2056396;28;20552;-52
2021/10/06 02:44:03;;;;;;;11.00;7.72;;;;;;;;;;2056381;28;20346;-54
2021/10/06 02:45:04;;;;;;;9.32;8.15;;;;;;;;;;2049671;28;20199;-52
2021/10/06 02:46:04;;;;;;;8.85;7.10;;;;;;;;;;2049475;28;20179;-51
2021/10/06 02:47:04;;;;;;;8.40;7.05;;;;;;;;;;2049630;28;20163;-54
2021/10/06 02:48:05;;;;;;;8.30;7.40;;;;;;;;;;2048914;28;20263;-52
2021/10/06 02:49:05;;;;;;;11.00;7.22;;;;;;;;;;2049878;28;20203;-52
2021/10/06 02:50:06;;;;;;;7.22;6.40;;;;;;;;;;2057662;23;20193;-57
2021/10/06 02:51:06;;;;;;;7.38;6.68;;;;;;;;;;2045090;28;20182;-54
2021/10/06 02:52:07;;;;;;;8.02;6.47;;;;;;;;;;2047775;29;20191;-57
2021/10/06 02:53:07;;;;;;;8.07;6.43;;;;;;;;;;2048548;29;20184;-55
2021/10/06 02:54:07;;;;;;;11.38;7.95;;;;;;;;;;2049254;28;20175;-57
2021/10/06 02:55:07;;;;;;;8.70;7.07;;;;;;;;;;2045881;29;20191;-55
2021/10/06 02:56:08;;;;;;;6.88;6.20;;;;;;;;;;2039783;29;20633;-58
2021/10/06 02:57:08;;;;;;;13.63;7.00;;;;;;;;;;2048734;29;20664;-55
2021/10/06 02:58:09;;;;;;;10.73;7.13;;;;;;;;;;2032640;29;20176;-54
2021/10/06 02:59:09;;;;;;;7.03;6.38;;;;;;;;;;2032398;29;20272;-58
2021/10/06 03:00:10;;;;;;;6.47;5.88;;;;;;;;;;2045986;28;20199;-57
2021/10/06 03:01:10;;;;;;;6.80;6.22;;;;;;;;;;2040345;29;20704;-54
2021/10/06 03:02:11;;;;;;;9.27;6.72;;;;;;;;;;2041228;29;20263;-52
2021/10/06 03:03:11;;;;;;;9.07;6.78;;;;;;;;;;2040027;29;20193;-58
2021/10/06 03:04:11;;;;;;;10.05;7.05;;;;;;;;;;2041474;29;20577;-57
2021/10/06 03:05:12;;;;;;;8.52;6.75;;;;;;;;;;2041308;29;20176;-58
2021/10/06 03:06:12;;;;;;;8.95;6.70;;;;;;;;;;2042764;29;20186;-57
2021/10/06 03:07:13;;;;;;;9.57;6.93;;;;;;;;;;2045983;29;20176;-55
2021/10/06 03:08:13;;;;;;;10.00;6.57;;;;;;;;;;2040877;29;20164;-53
2021/10/06 03:09:13;;;;;;;7.88;5.80;;;;;;;;;;2040450;29;20167;-56
2021/10/06 03:10:14;;;;;;;7.05;5.90;;;;;;;;;;2041056;29;20257;-55
2021/10/06 03:11:14;;;;;;;7.47;6.03;;;;;;;;;;2040523;29;20172;-56
2021/10/06 03:12:14;;;;;;;8.63;6.05;;;;;;;;;;2041491;29;20186;-58
2021/10/06 03:13:14;;;;;;;11.05;6.35;;;;;;;;;;2041158;29;20172;-57
2021/10/06 03:14:15;;;;;;;6.75;6.13;;;;;;;;;;2038870;29;20168;-57
2021/10/06 03:15:15;;;;;;;7.20;5.88;;;;;;;;;;2040391;29;20203;-57
2021/10/06 03:16:15;;;;;;;15.60;6.32;;;;;;;;;;2041227;29;20648;-56
2021/10/06 03:17:15;;;;;;;9.82;6.78;;;;;;;;;;2041247;29;20270;-54
2021/10/06 03:18:15;;;;;;;8.20;6.25;;;;;;;;;;2040795;29;20184;-56
2021/10/06 03:19:16;;;;;;;8.30;5.57;;;;;;;;;;2040188;29;20176;-53
2021/10/06 03:20:16;;;;;;;6.70;5.93;;;;;;;;;;2031564;29;20301;-56
2021/10/06 03:21:16;;;;;;;8.90;5.93;;;;;;;;;;2032790;29;20175;-58
2021/10/06 03:22:16;;;;;;;12.80;6.35;;;;;;;;;;2032913;29;20680;-57
2021/10/06 03:23:17;;;;;;;7.32;6.10;;;;;;;;;;2032771;29;20668;-59
2021/10/06 03:24:18;;;;;;;8.52;5.90;;;;;;;;;;2033639;29;20618;-54
2021/10/06 03:25:18;;;;;;;6.60;5.88;;;;;;;;;;2037469;29;20636;-59
2021/10/06 03:26:18;;;;;;;6.95;5.45;;;;;;;;;;2040734;29;20175;-56
2021/10/06 03:27:18;;;;;;;6.82;6.13;;;;;;;;;;2040486;29;20246;-57
2021/10/06 03:28:19;;;;;;;11.85;6.35;;;;;;;;;;2041181;29;20183;-58
2021/10/06 03:29:19;;;;;;;6.63;6.03;;;;;;;;;;2041294;29;20188;-58
2021/10/06 03:30:19;;;;;;;10.15;6.32;;;;;;;;;;2040897;29;20572;-58
2021/10/06 03:31:20;;;;;;;6.20;5.60;;;;;;;;;;2041439;29;20210;-57
2021/10/06 03:32:20;;;;;;;7.30;5.90;;;;;;;;;;2039536;29;20255;-59
2021/10/06 03:33:20;;;;;;;8.10;5.95;;;;;;;;;;2036683;29;20665;-58
2021/10/06 03:34:20;;;;;;;9.07;5.68;;;;;;;;;;2037528;29;20246;-56
2021/10/06 03:35:22;;;;;;;10.57;6.18;;;;;;;;;;2041175;29;20638;-57
2021/10/06 03:36:22;;;;;;;8.60;5.45;;;;;;;;;;2041188;29;20239;-54
2021/10/06 03:37:22;;;;;;;8.88;5.50;;;;;;;;;;2040814;29;20214;-56
2021/10/06 03:38:23;;;;;;;9.88;5.88;;;;;;;;;;2039996;29;20606;-54
2021/10/06 03:39:23;;;;;;;6.80;5.88;;;;;;;;;;2038504;29;20778;-59
2021/10/06 03:40:24;;;;;;;7.47;6.78;;;;;;;;;;2040072;29;20766;-54
2021/10/06 03:41:24;;;;;;;7.82;6.78;;;;;;;;;;2040480;29;20243;-59
2021/10/06 03:42:24;;;;;;;7.00;6.30;;;;;;;;;;2040509;29;20259;-56
2021/10/06 03:43:24;;;;;;;7.35;6.30;;;;;;;;;;2040068;29;20215;-53
2021/10/06 03:44:25;;;;;;;8.48;5.95;;;;;;;;;;2040814;29;20172;-55
2021/10/06 03:45:25;;;;;;;8.15;6.40;;;;;;;;;;2041285;29;20250;-55
2021/10/06 03:46:25;;;;;;;6.55;5.97;;;;;;;;;;2038178;29;20172;-58
2021/10/06 03:47:25;;;;;;;10.77;6.10;;;;;;;;;;2040716;29;20172;-57
2021/10/06 03:48:26;;;;;;;6.30;5.78;;;;;;;;;;2039806;29;20226;-60
2021/10/06 03:49:26;;;;;;;8.20;5.80;;;;;;;;;;2040205;29;20184;-58
2021/10/06 03:50:27;;;;;;;6.82;5.65;;;;;;;;;;2040474;29;20206;-59
2021/10/06 03:51:27;;;;;;;6.80;5.82;;;;;;;;;;2040489;29;20203;-59
2021/10/06 03:52:27;;;;;;;6.10;5.50;;;;;;;;;;2040618;29;20182;-58
2021/10/06 03:53:27;;;;;;;8.00;6.15;;;;;;;;;;2040325;29;20202;-60
2021/10/06 03:54:27;;;;;;;7.40;5.85;;;;;;;;;;2039651;29;20183;-59
2021/10/06 03:55:28;;;;;;;9.25;6.13;;;;;;;;;;2040684;29;20171;-60
2021/10/06 03:56:28;;;;;;;10.10;5.88;;;;;;;;;;2041326;29;20278;-57
2021/10/06 03:57:28;;;;;;;10.95;6.22;;;;;;;;;;2040618;29;20254;-59
2021/10/06 03:58:28;;;;;;;6.65;5.57;;;;;;;;;;2041028;29;20211;-60
2021/10/06 03:59:29;;;;;;;9.50;5.38;;;;;;;;;;2037905;29;20286;-58
2021/10/06 04:00:29;;;;;;;7.45;5.75;;;;;;;;;;2040085;29;20344;-57
2021/10/06 04:01:29;;;;;;;8.02;5.32;;;;;;;;;;2039987;29;20182;-57
2021/10/06 04:02:30;;;;;;;8.60;5.53;;;;;;;;;;2040945;29;20179;-57
2021/10/06 04:03:30;;;;;;;6.35;5.75;;;;;;;;;;2043851;29;20179;-57
2021/10/06 04:04:31;;;;;;;6.47;5.30;;;;;;;;;;2039916;29;20198;-58
2021/10/06 04:05:31;;;;;;;7.18;5.55;;;;;;;;;;2040200;29;20207;-58
2021/10/06 04:06:31;;;;;;;8.10;5.78;;;;;;;;;;2039010;29;20714;-57
2021/10/06 04:07:31;;;;;;;5.43;4.88;;;;;;;;;;2038971;29;20175;-57
2021/10/06 04:08:32;;;;;;;5.57;4.40;;;;;;;;;;2040518;29;20533;-55
2021/10/06 04:09:32;;;;;;;10.18;5.30;;;;;;;;;;2039426;29;20168;-54
2021/10/06 04:10:33;;;;;;;4.78;4.38;;;;;;;;;;2045791;29;20298;-58
2021/10/06 04:11:33;;;;;;;8.02;4.75;;;;;;;;;;2047500;29;20171;-59
2021/10/06 04:12:34;;;;;;;6.80;4.80;;;;;;;;;;2041028;29;20599;-59
2021/10/06 04:13:34;;;;;;;5.85;5.22;;;;;;;;;;2038989;29;20183;-56
2021/10/06 04:14:34;;;;;;;6.00;4.28;;;;;;;;;;2040743;29;20750;-59
2021/10/06 04:15:34;;;;;;;7.20;4.93;;;;;;;;;;2041845;29;20248;-57
2021/10/06 04:16:34;;;;;;;5.22;4.72;;;;;;;;;;2042696;29;20183;-58
2021/10/06 04:17:35;;;;;;;7.03;4.65;;;;;;;;;;2042671;29;20172;-56
2021/10/06 04:18:35;;;;;;;4.88;4.35;;;;;;;;;;2040980;29;20191;-57
2021/10/06 04:19:36;;;;;;;6.85;5.07;;;;;;;;;;2042101;29;20230;-57
2021/10/06 04:20:37;;;;;;;7.65;4.70;;;;;;;;;;2037909;29;20200;-59
2021/10/06 04:21:37;;;;;;;8.93;4.47;;;;;;;;;;2040625;29;20183;-57
2021/10/06 04:22:37;;;;;;;4.82;4.43;;;;;;;;;;2042505;29;20174;-57
2021/10/06 04:23:37;;;;;;;6.43;4.85;;;;;;;;;;2042108;29;20263;-55
2021/10/06 04:24:38;;;;;;;6.45;3.80;;;;;;;;;;2041936;29;20164;-57
2021/10/06 04:25:38;;;;;;;5.43;4.82;;;;;;;;;;2042696;29;20178;-59
2021/10/06 04:26:38;;;;;;;4.82;4.40;;;;;;;;;;2042571;29;20189;-56
2021/10/06 04:27:39;;;;;;;6.35;4.30;;;;;;;;;;2042447;29;20687;-56
2021/10/06 04:28:39;;;;;;;7.93;3.97;;;;;;;;;;2043501;29;20667;-55
2021/10/06 04:29:39;;;;;;;8.98;4.45;;;;;;;;;;2035193;29;20176;-55
2021/10/06 04:30:40;;;;;;;7.25;4.20;;;;;;;;;;2040266;29;20215;-55
2021/10/06 04:31:40;;;;;;;7.35;4.30;;;;;;;;;;2041979;29;20192;-57
2021/10/06 04:32:40;;;;;;;5.40;4.43;;;;;;;;;;2033217;29;20649;-54
2021/10/06 04:33:40;;;;;;;7.30;4.70;;;;;;;;;;2035023;29;20189;-56
2021/10/06 04:34:41;;;;;;;5.22;3.97;;;;;;;;;;2039177;29;20188;-58
2021/10/06 04:35:41;;;;;;;6.38;4.60;;;;;;;;;;2042205;29;20668;-56
2021/10/06 04:36:42;;;;;;;5.88;4.20;;;;;;;;;;2037902;29;20195;-58
2021/10/06 04:37:42;;;;;;;7.28;4.30;;;;;;;;;;2037003;29;20830;-58
2021/10/06 04:38:42;;;;;;;7.63;4.00;;;;;;;;;;2040946;29;20797;-58
2021/10/06 04:39:43;;;;;;;9.23;4.85;;;;;;;;;;2041826;29;20203;-60
2021/10/06 04:40:43;;;;;;;7.10;4.85;;;;;;;;;;2041085;29;20206;-58
2021/10/06 04:41:43;;;;;;;5.00;4.57;;;;;;;;;;2036205;29;20192;-59
2021/10/06 04:42:45;;;;;;;8.07;5.45;;;;;;;;;;2040945;29;20274;-57
2021/10/06 04:43:46;;;;;;;6.30;4.68;;;;;;;;;;2042426;29;20174;-59
2021/10/06 04:44:46;;;;;;;6.50;5.03;;;;;;;;;;2042244;29;20195;-59
2021/10/06 04:45:46;;;;;;;6.00;4.30;;;;;;;;;;2047569;29;20250;-61
2021/10/06 04:46:47;;;;;;;7.72;4.47;;;;;;;;;;2047836;28;20187;-58
2021/10/06 04:47:47;;;;;;;5.93;4.68;;;;;;;;;;2042652;29;20176;-58
2021/10/06 04:48:48;;;;;;;8.35;4.70;;;;;;;;;;2041813;29;20546;-56
2021/10/06 04:49:48;;;;;;;9.80;4.70;;;;;;;;;;2042295;29;20179;-56
2021/10/06 04:50:48;;;;;;;6.05;5.05;;;;;;;;;;2042021;29;20190;-56
2021/10/06 04:51:49;;;;;;;5.30;4.90;;;;;;;;;;2042370;29;20179;-55
2021/10/06 04:52:49;;;;;;;8.90;4.75;;;;;;;;;;2042138;29;20179;-58
2021/10/06 04:53:49;;;;;;;6.85;4.70;;;;;;;;;;2042113;29;20250;-59
2021/10/06 04:54:52;;;;;;;6.68;4.75;;;;;;;;;;2042524;29;20183;-56
2021/10/06 04:55:53;;;;;;;12.23;5.50;;;;;;;;;;2036232;29;20579;-51
2021/10/06 04:56:53;;;;;;;5.15;4.53;;;;;;;;;;2042631;29;20263;-57
2021/10/06 04:57:54;;;;;;;7.30;4.72;;;;;;;;;;2042417;29;20184;-60
2021/10/06 04:58:58;;;;;;;8.60;4.80;;;;;;;;;;2042604;29;20252;-62
2021/10/06 04:59:58;;;;;;;6.20;5.00;;;;;;;;;;2042533;29;20206;-59
2021/10/06 05:00:58;;;;;;;8.90;4.75;;;;;;;;;;2036383;29;20320;-56
2021/10/06 05:01:59;;;;;;;6.00;4.85;;;;;;;;;;2041480;29;20195;-63
2021/10/06 05:03:10;;;;;;;6.88;4.70;;;;;;;;;;2041765;29;20679;-58
2021/10/06 05:04:10;;;;;;;7.05;4.65;;;;;;;;;;2045576;29;20203;-60
2021/10/06 05:05:10;;;;;;;8.95;4.60;;;;;;;;;;2038892;29;20164;-61
2021/10/06 05:06:10;;;;;;;6.95;4.82;;;;;;;;;;2034000;29;20544;-59
2021/10/06 05:07:11;;;;;;;7.10;4.13;;;;;;;;;;2034930;29;21124;-62
2021/10/06 05:08:11;;;;;;;10.35;5.22;;;;;;;;;;2037335;29;20171;-59
2021/10/06 05:09:12;;;;;;;6.88;4.47;;;;;;;;;;2040231;29;20267;-60
2021/10/06 05:10:12;;;;;;;6.47;4.93;;;;;;;;;;2037183;29;20214;-62
2021/10/06 05:11:13;;;;;;;7.25;5.13;;;;;;;;;;2041574;29;20168;-60
2021/10/06 05:12:13;;;;;;;11.27;4.72;;;;;;;;;;2034259;29;20556;-59
2021/10/06 05:13:13;;;;;;;6.55;4.88;;;;;;;;;;2041796;29;20168;-62
2021/10/06 05:14:13;;;;;;;8.75;4.93;;;;;;;;;;2047609;28;20175;-61
2021/10/06 05:15:14;;;;;;;5.13;4.65;;;;;;;;;;2047601;29;20264;-62
2021/10/06 05:16:14;;;;;;;5.43;4.93;;;;;;;;;;2039010;29;20258;-62
2021/10/06 05:17:14;;;;;;;8.13;5.22;;;;;;;;;;2040933;29;20215;-62
2021/10/06 05:18:14;;;;;;;6.00;4.90;;;;;;;;;;2042159;29;20266;-61
2021/10/06 05:19:14;;;;;;;8.73;5.20;;;;;;;;;;2044050;29;20626;-62
2021/10/06 05:20:15;;;;;;;7.07;5.40;;;;;;;;;;2041930;28;20199;-57
2021/10/06 05:21:15;;;;;;;6.57;4.43;;;;;;;;;;2039891;29;20203;-61
2021/10/06 05:22:15;;;;;;;5.57;5.05;;;;;;;;;;2041718;29;20187;-61
2021/10/06 05:23:15;;;;;;;5.70;4.72;;;;;;;;;;2038612;29;20180;-61
2021/10/06 05:24:16;;;;;;;5.72;4.22;;;;;;;;;;2042158;29;20591;-61
2021/10/06 05:25:16;;;;;;;6.15;4.70;;;;;;;;;;2041477;29;20592;-60
2021/10/06 05:26:16;;;;;;;8.15;4.55;;;;;;;;;;2041556;29;20190;-60
2021/10/06 05:27:16;;;;;;;6.40;4.90;;;;;;;;;;2041043;29;20227;-61
2021/10/06 05:28:17;;;;;;;6.13;3.97;;;;;;;;;;2042064;29;20553;-62
2021/10/06 05:29:17;;;;;;;7.95;5.18;;;;;;;;;;2042098;29;20167;-61
2021/10/06 05:30:17;;;;;;;9.25;4.47;;;;;;;;;;2041412;29;20191;-58
2021/10/06 05:31:18;;;;;;;7.60;4.53;;;;;;;;;;2041763;29;20180;-59
2021/10/06 05:32:18;;;;;;;6.15;4.00;;;;;;;;;;2040933;29;20182;-62
2021/10/06 05:33:18;;;;;;;7.75;4.60;;;;;;;;;;2039173;29;20188;-61
2021/10/06 05:34:18;;;;;;;7.90;4.53;;;;;;;;;;2038255;29;20159;-61
2021/10/06 05:35:19;;;;;;;6.55;4.57;;;;;;;;;;2042137;29;20199;-60
2021/10/06 05:36:20;;;;;;;6.03;4.55;;;;;;;;;;2042309;29;20267;-60
2021/10/06 05:37:20;;;;;;;6.85;4.55;;;;;;;;;;2040753;29;20628;-61
2021/10/06 05:38:20;;;;;;;9.80;4.85;;;;;;;;;;2041700;29;20172;-61
2021/10/06 05:39:21;;;;;;;8.07;5.25;;;;;;;;;;2041921;29;20230;-61
2021/10/06 05:40:21;;;;;;;9.35;5.43;;;;;;;;;;2041885;29;20551;-61
2021/10/06 05:41:21;;;;;;;8.35;5.40;;;;;;;;;;2041051;29;20187;-61
2021/10/06 05:42:21;;;;;;;9.25;5.05;;;;;;;;;;2041110;29;20207;-61
2021/10/06 05:43:22;;;;;;;7.80;5.50;;;;;;;;;;2041576;29;20528;-61
2021/10/06 05:44:22;;;;;;;6.35;5.40;;;;;;;;;;2041219;29;20262;-59
2021/10/06 05:45:22;;;;;;;9.98;5.35;;;;;;;;;;2041550;29;20176;-61
2021/10/06 05:46:26;;;;;;;5.97;5.35;;;;;;;;;;2033565;29;20168;-61
2021/10/06 05:47:26;;;;;;;5.65;5.10;;;;;;;;;;2041561;29;20188;-61
2021/10/06 05:48:26;;;;;;;7.65;5.75;;;;;;;;;;2042202;29;20179;-61
2021/10/06 05:49:27;;;;;;;9.35;5.90;;;;;;;;;;2042115;29;20168;-59
2021/10/06 05:50:27;;;;;;;6.90;5.22;;;;;;;;;;2041662;29;20270;-60
2021/10/06 05:51:27;;;;;;;8.95;5.80;;;;;;;;;;2040420;29;20238;-61
2021/10/06 05:52:27;;;;;;;7.30;5.63;;;;;;;;;;2042053;29;20234;-61
2021/10/06 05:53:28;;;;;;;6.28;5.20;;;;;;;;;;2041289;29;20176;-61
2021/10/06 05:54:28;;;;;;;8.45;5.15;;;;;;;;;;2033723;29;20191;-62
2021/10/06 05:55:28;;;;;;;11.68;5.78;;;;;;;;;;2041697;29;20187;-62
2021/10/06 05:56:29;;;;;;;8.05;5.60;;;;;;;;;;2049231;29;20167;-62
2021/10/06 05:57:29;;;;;;;9.00;5.00;;;;;;;;;;2049493;29;20190;-61
2021/10/06 05:58:29;;;;;;;6.20;5.50;;;;;;;;;;2041531;29;20571;-61
2021/10/06 05:59:31;;;;;;;9.85;5.20;;;;;;;;;;2041987;29;20203;-62
2021/10/06 06:00:31;;;;;;;9.57;5.57;;;;;;;;;;2040672;29;20192;-62
2021/10/06 06:01:31;;;;;;;6.93;6.00;;;;;;;;;;2041436;29;20270;-61